Airfield :
LOGIN :

Register | Disclaimer

   EN    FR    IT 

 










Legend :    VFR   Marginal VFR   IFR   Intensive IFR   Very Intensive IFR
Visi :
Ceiling :
>= 8 km
>= 3000ft
5 to 8 km
1000 to 3000 ft
1500m to 5 km
500 to 1000 ft
800 to 1500m
200 to 500 ft
< 800m
< 200 ft
Symbols :   Thunderstorms  Fog  Heavy snow  Heavy precipitations  Wind > 20 kt
SIGMETs :     Misc.  Thunderstorms  Icing  Turbulence  Mountain Waves  Volcanic Ashes






- Airport Elevation : 425 ft
- IATA code : DTM


EDLW - Dortmund

CURRENT METAR :
  • 270820Z 21013KT 9999 SCT029 OVC034 10/07 Q1006

EXPIRED METARs :
  • 270750Z 21010KT 9999 BKN029 09/06 Q1005
  • 270720Z 22011KT 9999 SCT036 BKN042 09/06 Q1005
  • 270650Z 20012KT 9999 SCT028 SCT035 09/06 Q1005
  • 270620Z 21011KT 9999 OVC027 09/06 Q1005

TAF TAF EDLW
Valid from the 27 at 06:00 until the 28 at 06:00 UTC


270500Z 2706/2806 19012KT 9999 BKN020
PROB30
TEMPO 2706/2710 SHRA BKN015CB
BECMG 2708/2710 20015G25KT
TEMPO 2715/2718 20012KT
PROB40
TEMPO 2720/2803 RA
PROB30
TEMPO 2800/2804 BKN012
BECMG 2802/2804 22010KT



MET'MAP, your aeronautical weather chart ! - Copyright ORBIFLY December 2007 - Disclaimer

ORBIFLY MET'MAP TEAM :

Programming & Development : Alexandra Zaïnal
Concept & original design : Baudouin d'Aumeries
Assistance for programming : Marc-Olivier Méhu
Technical & hardware support : Manuel Goepfert

Contact : metmap@orbifly.com




SOURCES & CREDITS :

   NOAA